Kilgore, Ohio
Current Conditions -  °F | °C
As of 10:53 AM on Saturday 25 Oct 2014 (Local Time) from KPHD Reporting Station
Overcast Overcast  
Wind Chill: 51°   Ceiling: 6500
Heat Index: 51°   Visibility: 10mi
Dew Point: 45°   Wind: 5mph
Humidity: 80%   Direction: 160°SSE
Pressure: 29.95"   Gusts: NA
Location:  40.5653°N, 81.0724°W
Report Text: KPHD 251453Z AUTO 16004KT 10SM BKN065 OVC090 11/07 A2995 RMK AO2 SLP143 T01060072 58006
Loading
Personal Weather Stations






























Interactive Weather Map
Tropical Storm Tracking
New forecast layout! Learn more

10-Day Weather Forecast

Advertisements
Track Severe Weather on mobile